Time;durP1;ratioP1;P1;durP2;ratioP2;P2;SDS_P1;SDS_P2;PMS_P1;PMS_P2;Temp;Humidity;BMP_temperature;BMP_pressure;BME280_temperature;BME280_humidity;BME280_pressure;Samples;Min_cycle;Max_cycle;Signal;HPM_P1;HPM_P2
2021/01/02 00:00:05;;;;;;;9.48;3.88;;;3.20;99.90;;;;;;4975885;28;20038;-74
2021/01/02 00:02:40;;;;;;;9.32;4.30;;;3.20;99.90;;;;;;4972240;28;20026;-75
2021/01/02 00:05:08;;;;;;;6.10;3.85;;;3.20;99.90;;;;;;4993296;28;20501;-74
2021/01/02 00:08:00;;;;;;;9.55;4.03;;;3.10;99.90;;;;;;4982776;28;20137;-74
2021/01/02 00:10:53;;;;;;;8.55;4.30;;;3.10;99.90;;;;;;4978415;28;20979;-69
2021/01/02 00:13:31;;;;;;;10.35;5.45;;;3.00;99.90;;;;;;4992954;28;20060;-70
2021/01/02 00:16:05;;;;;;;7.00;3.70;;;3.10;99.90;;;;;;4976947;28;20098;-74
2021/01/02 00:19:25;;;;;;;7.85;4.05;;;3.10;99.90;;;;;;4985085;28;20101;-74
2021/01/02 00:22:07;;;;;;;5.38;3.45;;;3.00;99.90;;;;;;4947289;28;20038;-74
2021/01/02 00:24:54;;;;;;;5.63;2.83;;;2.90;99.90;;;;;;4945701;28;20122;-74
2021/01/02 00:27:28;;;;;;;4.70;3.03;;;2.90;99.90;;;;;;4971790;28;20046;-74
2021/01/02 00:30:00;;;;;;;5.65;3.03;;;3.00;99.90;;;;;;4984584;28;20046;-75
2021/01/02 00:32:47;;;;;;;5.30;2.50;;;3.00;99.90;;;;;;4978547;28;20034;-75
2021/01/02 00:35:19;;;;;;;5.60;2.90;;;3.00;99.90;;;;;;4981791;28;20921;-75
2021/01/02 00:38:07;;;;;;;4.10;2.45;;;3.10;99.90;;;;;;4985456;28;20506;-75
2021/01/02 00:40:37;;;;;;;3.38;2.38;;;3.00;99.90;;;;;;4957572;28;20508;-75
2021/01/02 00:43:04;;;;;;;5.07;2.88;;;3.00;99.90;;;;;;4982441;28;20427;-75
2021/01/02 00:45:35;;;;;;;5.40;2.40;;;3.10;99.90;;;;;;4979334;28;20129;-75
2021/01/02 00:48:05;;;;;;;5.05;2.85;;;3.00;99.90;;;;;;4975559;28;20034;-75
2021/01/02 00:50:32;;;;;;;6.45;2.80;;;3.00;99.90;;;;;;4978959;28;20046;-75
2021/01/02 00:53:16;;;;;;;4.50;3.05;;;3.00;99.90;;;;;;4968242;28;20035;-75
2021/01/02 00:55:45;;;;;;;5.18;2.90;;;3.10;99.90;;;;;;4978544;28;20258;-75
2021/01/02 00:58:22;;;;;;;5.50;2.80;;;3.00;99.90;;;;;;4989299;28;20066;-74
2021/01/02 01:01:03;;;;;;;5.47;3.17;;;3.00;99.90;;;;;;4984912;28;20498;-74
2021/01/02 01:04:13;;;;;;;3.83;2.70;;;3.00;99.90;;;;;;5001845;28;20041;-75
2021/01/02 01:06:43;;;;;;;4.43;3.03;;;3.00;99.90;;;;;;4986292;28;20561;-75
2021/01/02 01:09:13;;;;;;;7.10;3.22;;;3.00;99.90;;;;;;4982626;28;20034;-74
2021/01/02 01:11:45;;;;;;;5.10;3.55;;;3.00;99.90;;;;;;4977810;28;20057;-74
2021/01/02 01:14:10;;;;;;;8.43;4.35;;;3.00;99.90;;;;;;4974111;28;20038;-75
2021/01/02 01:16:44;;;;;;;10.00;4.25;;;3.00;99.90;;;;;;4980906;28;20514;-75
2021/01/02 01:19:14;;;;;;;7.90;4.75;;;2.90;99.90;;;;;;4979076;28;20038;-74
2021/01/02 01:21:50;;;;;;;9.40;4.82;;;2.90;99.90;;;;;;4981675;28;20042;-74
2021/01/02 01:24:34;;;;;;;10.30;5.03;;;2.90;99.90;;;;;;4978771;28;20041;-74
2021/01/02 01:27:27;;;;;;;8.90;4.40;;;2.90;99.90;;;;;;4980285;28;20049;-75
2021/01/02 01:29:56;;;;;;;10.52;5.30;;;2.80;99.90;;;;;;4996682;28;20053;-75
2021/01/02 01:32:25;;;;;;;8.77;5.45;;;2.80;99.90;;;;;;4981434;28;20031;-75
2021/01/02 01:34:59;;;;;;;13.20;6.60;;;2.80;99.90;;;;;;4970550;28;20668;-75
2021/01/02 01:37:28;;;;;;;8.88;4.60;;;2.70;99.90;;;;;;4976155;28;20034;-75
2021/01/02 01:39:55;;;;;;;13.02;6.72;;;2.70;99.90;;;;;;4978678;28;20042;-74
2021/01/02 01:42:43;;;;;;;14.90;7.75;;;2.70;99.90;;;;;;4976811;28;20042;-74
2021/01/02 01:45:21;;;;;;;13.73;7.35;;;2.70;99.90;;;;;;4978016;28;20038;-74
2021/01/02 01:48:09;;;;;;;14.00;7.88;;;2.60;99.90;;;;;;4979003;28;20034;-74
2021/01/02 01:51:22;;;;;;;16.38;8.82;;;2.50;99.90;;;;;;4983892;28;20035;-75
2021/01/02 01:54:34;;;;;;;17.52;8.23;;;2.30;99.90;;;;;;4984061;28;20112;-74
2021/01/02 01:57:04;;;;;;;12.88;7.72;;;2.30;99.90;;;;;;4964806;28;20735;-74
2021/01/02 01:59:56;;;;;;;15.80;7.38;;;2.20;99.90;;;;;;4975300;28;20038;-73
2021/01/02 02:02:44;;;;;;;15.45;8.48;;;2.20;99.90;;;;;;4980177;28;20558;-74
2021/01/02 02:05:16;;;;;;;14.30;7.40;;;2.20;99.90;;;;;;4969935;28;20142;-74
2021/01/02 02:07:46;;;;;;;19.52;7.85;;;2.10;99.90;;;;;;4975280;28;20030;-76
2021/01/02 02:10:33;;;;;;;16.17;8.27;;;2.00;99.90;;;;;;4973010;28;20422;-74
2021/01/02 02:13:20;;;;;;;15.63;8.15;;;2.00;99.90;;;;;;4976726;28;20030;-74
2021/01/02 02:15:47;;;;;;;15.02;8.15;;;2.00;99.90;;;;;;4970447;28;20035;-74
2021/01/02 02:18:27;;;;;;;17.58;8.00;;;1.90;99.90;;;;;;4979255;28;20494;-74
2021/01/02 02:20:55;;;;;;;18.15;8.57;;;1.90;99.90;;;;;;4956877;28;20034;-74
2021/01/02 02:23:42;;;;;;;15.05;8.25;;;1.80;99.90;;;;;;4979201;28;20491;-74
2021/01/02 02:26:26;;;;;;;16.02;8.27;;;1.80;99.90;;;;;;4980032;28;20042;-74
2021/01/02 02:29:13;;;;;;;16.27;8.02;;;1.80;99.90;;;;;;4980799;28;20027;-74
2021/01/02 02:31:46;;;;;;;17.52;8.45;;;1.70;99.90;;;;;;4980299;28;20041;-74
2021/01/02 02:34:13;;;;;;;16.33;7.82;;;1.60;99.90;;;;;;4992762;28;20046;-74
2021/01/02 02:36:39;;;;;;;17.17;8.10;;;1.60;99.90;;;;;;4989263;28;20034;-74
2021/01/02 02:39:11;;;;;;;16.85;8.52;;;1.60;99.90;;;;;;4978128;28;20072;-73
2021/01/02 02:41:46;;;;;;;19.90;10.10;;;1.50;99.90;;;;;;4983486;28;20129;-73
2021/01/02 02:44:16;;;;;;;13.80;7.50;;;1.40;99.90;;;;;;4971027;28;20101;-73
2021/01/02 02:46:47;;;;;;;15.00;8.07;;;1.50;99.90;;;;;;4977041;28;20034;-73
2021/01/02 02:49:21;;;;;;;19.00;8.77;;;1.40;99.90;;;;;;4973653;28;20449;-73
2021/01/02 02:51:54;;;;;;;17.08;8.88;;;1.20;99.90;;;;;;4982387;28;20061;-74
2021/01/02 02:54:23;;;;;;;18.08;9.07;;;1.20;99.90;;;;;;4969072;28;20046;-73
2021/01/02 02:56:49;;;;;;;18.75;9.30;;;1.10;99.90;;;;;;4975740;28;20030;-73
2021/01/02 02:59:14;;;;;;;21.05;9.60;;;1.10;99.90;;;;;;4979247;28;20457;-74
2021/01/02 03:01:40;;;;;;;15.45;9.00;;;1.10;99.90;;;;;;4977055;28;20551;-74
2021/01/02 03:04:05;;;;;;;17.15;8.90;;;1.10;99.90;;;;;;4969703;28;20068;-74
2021/01/02 03:06:32;;;;;;;15.98;8.73;;;1.10;99.90;;;;;;4971505;28;20030;-74
2021/01/02 03:08:58;;;;;;;19.23;9.50;;;1.00;99.90;;;;;;4979651;28;20034;-74
2021/01/02 03:11:25;;;;;;;21.42;10.50;;;1.00;99.90;;;;;;4983512;28;20486;-73
2021/01/02 03:13:54;;;;;;;21.67;11.32;;;1.00;99.90;;;;;;4982238;28;20113;-73
2021/01/02 03:16:21;;;;;;;21.75;11.15;;;1.10;99.90;;;;;;4977791;28;20052;-74
2021/01/02 03:18:47;;;;;;;24.63;11.65;;;1.00;99.90;;;;;;4976669;28;20030;-74
2021/01/02 03:21:12;;;;;;;23.02;11.27;;;0.80;99.90;;;;;;4996339;28;20030;-74
2021/01/02 03:23:49;;;;;;;22.85;11.10;;;0.70;99.90;;;;;;4972312;28;20725;-74
2021/01/02 03:26:16;;;;;;;21.73;11.50;;;0.60;99.90;;;;;;4975881;28;20078;-73
2021/01/02 03:28:52;;;;;;;17.63;10.13;;;0.40;99.90;;;;;;4978552;28;20026;-74
2021/01/02 03:31:19;;;;;;;22.48;11.35;;;0.30;99.90;;;;;;4983484;28;20746;-74
2021/01/02 03:33:45;;;;;;;21.92;11.20;;;0.30;99.90;;;;;;4975499;28;20026;-73
2021/01/02 03:36:11;;;;;;;21.88;11.23;;;0.20;99.90;;;;;;4976941;28;20047;-73
2021/01/02 03:38:38;;;;;;;23.95;11.82;;;0.20;99.90;;;;;;4978716;28;20034;-74
2021/01/02 03:41:04;;;;;;;25.13;12.73;;;0.20;99.90;;;;;;4978197;28;20081;-74
2021/01/02 03:43:30;;;;;;;22.05;11.40;;;0.10;99.90;;;;;;4992280;28;20038;-74
2021/01/02 03:45:55;;;;;;;25.10;12.02;;;0.10;99.90;;;;;;4996392;28;20089;-74
2021/01/02 03:48:22;;;;;;;28.00;12.23;;;0.10;99.90;;;;;;4975508;28;20054;-73
2021/01/02 03:50:48;;;;;;;23.05;11.77;;;0.10;99.90;;;;;;4986392;28;20038;-74
2021/01/02 03:53:13;;;;;;;25.23;12.32;;;0.10;99.90;;;;;;4985114;28;20026;-73
2021/01/02 03:55:40;;;;;;;21.65;11.18;;;0.00;99.90;;;;;;4981806;28;20486;-73
2021/01/02 03:58:06;;;;;;;25.98;11.70;;;0.10;99.90;;;;;;4978390;28;20088;-74
2021/01/02 04:00:32;;;;;;;24.65;12.45;;;0.00;99.90;;;;;;4976176;28;20509;-74
2021/01/02 04:02:59;;;;;;;25.83;11.60;;;0.00;99.90;;;;;;4995425;28;20034;-73
2021/01/02 04:05:25;;;;;;;24.15;12.07;;;0.00;99.90;;;;;;4999324;28;20045;-73
2021/01/02 04:07:50;;;;;;;27.00;12.73;;;0.00;99.90;;;;;;4982420;28;20113;-73
2021/01/02 04:10:16;;;;;;;26.23;12.77;;;-0.10;99.90;;;;;;4987383;28;20034;-74
2021/01/02 04:12:42;;;;;;;26.15;12.60;;;-0.10;99.90;;;;;;4983625;28;20034;-74
2021/01/02 04:15:08;;;;;;;27.23;12.18;;;0.00;99.90;;;;;;4983431;28;20037;-73
2021/01/02 04:17:34;;;;;;;23.50;12.23;;;0.00;99.90;;;;;;4987714;28;20038;-74
2021/01/02 04:20:00;;;;;;;22.30;11.43;;;0.00;99.90;;;;;;4995919;28;20122;-74
2021/01/02 04:22:25;;;;;;;28.17;10.85;;;0.10;99.90;;;;;;4978137;28;20038;-74
2021/01/02 04:24:51;;;;;;;23.83;10.68;;;0.10;99.90;;;;;;4981419;28;20776;-74
2021/01/02 04:27:17;;;;;;;24.15;11.40;;;0.10;99.90;;;;;;4999226;28;20042;-74
2021/01/02 04:29:42;;;;;;;22.92;11.20;;;0.10;99.90;;;;;;4980115;28;20051;-74
2021/01/02 04:32:08;;;;;;;20.17;10.55;;;0.10;99.90;;;;;;4960800;28;20062;-74
2021/01/02 04:34:34;;;;;;;19.70;11.40;;;0.20;99.90;;;;;;4993308;28;20049;-74
2021/01/02 04:36:59;;;;;;;25.13;10.85;;;0.20;99.90;;;;;;5000636;28;20052;-74
2021/01/02 04:39:25;;;;;;;23.77;11.50;;;0.30;99.90;;;;;;4998748;28;20038;-73
2021/01/02 04:41:51;;;;;;;22.35;10.95;;;0.40;99.90;;;;;;4975035;28;20143;-73
2021/01/02 04:44:18;;;;;;;21.77;11.68;;;0.50;99.90;;;;;;4976034;28;20030;-74
2021/01/02 04:46:47;;;;;;;21.13;10.90;;;0.50;99.90;;;;;;4975358;28;20034;-73
2021/01/02 04:49:13;;;;;;;22.05;10.77;;;0.50;99.90;;;;;;4977052;28;20062;-74
2021/01/02 04:51:39;;;;;;;18.55;10.75;;;0.60;99.90;;;;;;4980796;28;20258;-73
2021/01/02 04:54:06;;;;;;;21.55;11.10;;;0.60;99.90;;;;;;4980403;28;20062;-73
2021/01/02 04:56:40;;;;;;;19.77;10.27;;;0.50;99.90;;;;;;4978993;28;20035;-73
2021/01/02 04:59:10;;;;;;;21.55;10.35;;;0.60;99.90;;;;;;4975579;28;20039;-74
2021/01/02 05:01:40;;;;;;;18.83;10.27;;;0.60;99.90;;;;;;4976023;28;20038;-73
2021/01/02 05:04:08;;;;;;;23.33;11.40;;;0.70;99.90;;;;;;4977193;28;20137;-73
2021/01/02 05:06:35;;;;;;;21.67;10.50;;;0.70;99.90;;;;;;4985782;28;20034;-74
2021/01/02 05:09:02;;;;;;;19.05;10.05;;;0.80;99.90;;;;;;4980463;28;20353;-74
2021/01/02 05:11:38;;;;;;;19.67;10.38;;;0.90;99.90;;;;;;4983472;28;20071;-73
2021/01/02 05:14:04;;;;;;;;;;;0.90;99.90;;;;;;4978737;28;20035;-74
2021/01/02 05:16:38;;;;;;;21.17;10.68;;;0.90;99.90;;;;;;4976865;28;19977;-74
2021/01/02 05:19:08;;;;;;;20.98;10.88;;;0.90;99.90;;;;;;4986509;28;20060;-74
2021/01/02 05:21:35;;;;;;;19.70;10.07;;;0.90;99.90;;;;;;4985024;28;20065;-73
2021/01/02 05:24:11;;;;;;;21.65;10.45;;;0.90;99.90;;;;;;4975568;28;20069;-75
2021/01/02 05:26:39;;;;;;;17.67;9.52;;;0.90;99.90;;;;;;4983662;28;20026;-75
2021/01/02 05:29:13;;;;;;;17.60;9.27;;;0.90;99.90;;;;;;4976016;28;20030;-75
2021/01/02 05:31:40;;;;;;;19.98;10.77;;;0.90;99.90;;;;;;4978903;28;20038;-75
2021/01/02 05:34:07;;;;;;;20.42;10.32;;;0.90;99.90;;;;;;4983938;28;20030;-75
2021/01/02 05:36:33;;;;;;;19.30;10.88;;;0.90;99.90;;;;;;4973549;28;20107;-76
2021/01/02 05:38:59;;;;;;;21.02;10.45;;;0.90;99.90;;;;;;4982301;28;20502;-73
2021/01/02 05:41:26;;;;;;;20.48;10.63;;;1.00;99.90;;;;;;4977422;28;20113;-73
2021/01/02 05:43:52;;;;;;;19.40;9.75;;;1.00;99.90;;;;;;4984858;28;20471;-73
2021/01/02 05:46:21;;;;;;;19.08;9.55;;;1.00;99.90;;;;;;4978350;28;20026;-74
2021/01/02 05:48:48;;;;;;;25.77;12.43;;;1.00;99.90;;;;;;4981261;28;20450;-74
2021/01/02 05:51:19;;;;;;;24.08;10.27;;;1.00;99.90;;;;;;4999684;28;20042;-73
2021/01/02 05:53:46;;;;;;;18.35;9.95;;;1.00;99.90;;;;;;4970719;28;20038;-76
2021/01/02 05:56:13;;;;;;;18.85;9.77;;;1.00;99.90;;;;;;4975772;28;20046;-73
2021/01/02 05:58:44;;;;;;;19.27;9.48;;;1.00;99.90;;;;;;4985470;28;20041;-73
2021/01/02 06:01:18;;;;;;;20.05;10.68;;;1.00;99.90;;;;;;4960779;28;20038;-73
2021/01/02 06:03:57;;;;;;;19.85;9.50;;;1.00;99.90;;;;;;5000670;28;20495;-71
2021/01/02 06:06:22;;;;;;;15.90;8.88;;;1.10;99.90;;;;;;4985693;28;20240;-68
2021/01/02 06:08:50;;;;;;;31.23;15.55;;;1.10;99.90;;;;;;4984552;28;20729;-70
2021/01/02 06:11:23;;;;;;;22.13;10.40;;;1.10;99.90;;;;;;4985546;28;20027;-69
2021/01/02 06:13:51;;;;;;;18.25;9.35;;;1.20;99.90;;;;;;4985008;28;20049;-66
2021/01/02 06:16:17;;;;;;;19.08;10.23;;;1.10;99.90;;;;;;4984184;28;20113;-68
2021/01/02 06:18:45;;;;;;;18.35;9.25;;;1.20;99.90;;;;;;4975786;28;20077;-64
2021/01/02 06:21:17;;;;;;;20.77;9.65;;;1.30;99.90;;;;;;4965407;28;20038;-68
2021/01/02 06:23:45;;;;;;;19.60;10.20;;;1.30;99.90;;;;;;4965008;28;20054;-68
2021/01/02 06:26:13;;;;;;;25.80;12.48;;;1.20;99.90;;;;;;4965723;28;20039;-73
2021/01/02 06:28:41;;;;;;;18.10;9.50;;;1.30;99.90;;;;;;4994317;28;20038;-73
2021/01/02 06:31:07;;;;;;;21.58;10.00;;;1.20;99.90;;;;;;4967828;28;20038;-73
2021/01/02 06:33:34;;;;;;;18.10;9.63;;;1.20;99.90;;;;;;4972823;28;20038;-68
2021/01/02 06:36:01;;;;;;;16.83;9.57;;;1.10;99.90;;;;;;4954160;28;20062;-72
2021/01/02 06:38:28;;;;;;;19.15;9.88;;;1.10;99.90;;;;;;4964392;28;20031;-72
2021/01/02 06:40:56;;;;;;;18.33;9.25;;;1.10;99.90;;;;;;4963476;28;20043;-73
2021/01/02 06:43:39;;;;;;;18.15;9.88;;;1.10;99.90;;;;;;4963666;28;20047;-71
2021/01/02 06:46:09;;;;;;;20.67;10.48;;;1.10;99.90;;;;;;4967151;28;20070;-72
2021/01/02 06:48:36;;;;;;;24.85;11.18;;;1.10;99.90;;;;;;4977976;28;20037;-73
2021/01/02 06:51:23;;;;;;;19.10;9.98;;;1.10;99.90;;;;;;4962653;28;20078;-73
2021/01/02 06:53:49;;;;;;;20.35;10.70;;;1.00;99.90;;;;;;4959682;28;20034;-72
2021/01/02 06:56:16;;;;;;;23.98;10.57;;;1.00;99.90;;;;;;4964609;28;20045;-68
2021/01/02 06:58:45;;;;;;;21.38;10.15;;;1.00;99.90;;;;;;4974161;28;20062;-73
2021/01/02 07:01:16;;;;;;;20.08;10.32;;;1.00;99.90;;;;;;4953114;28;20534;-72
2021/01/02 07:03:44;;;;;;;20.08;10.50;;;1.00;99.90;;;;;;4987907;28;20030;-76
2021/01/02 07:06:26;;;;;;;22.42;10.10;;;1.00;99.90;;;;;;4970332;28;20058;-72
2021/01/02 07:09:09;;;;;;;18.55;9.70;;;1.00;99.90;;;;;;4966798;28;20034;-73
2021/01/02 07:11:50;;;;;;;19.65;10.15;;;1.10;99.90;;;;;;4959666;28;20849;-69
2021/01/02 07:14:20;;;;;;;19.25;10.38;;;1.00;99.90;;;;;;4969034;28;20114;-73
2021/01/02 07:16:50;;;;;;;16.80;9.63;;;1.00;99.90;;;;;;4959907;28;20187;-73
2021/01/02 07:19:29;;;;;;;16.63;9.02;;;1.00;99.90;;;;;;4966215;28;20054;-75
2021/01/02 07:22:25;;;;;;;20.85;10.52;;;1.00;99.90;;;;;;4966121;28;20046;-75
2021/01/02 07:25:07;;;;;;;18.73;10.13;;;0.90;99.90;;;;;;4964413;28;20450;-74
2021/01/02 07:27:39;;;;;;;16.23;9.23;;;0.90;99.90;;;;;;4971812;28;20035;-74
2021/01/02 07:30:12;;;;;;;21.35;11.18;;;0.90;99.90;;;;;;4965217;28;20521;-74
2021/01/02 07:32:43;;;;;;;18.63;10.43;;;0.90;99.90;;;;;;4970612;28;20069;-74
2021/01/02 07:35:15;;;;;;;19.60;10.27;;;0.90;99.90;;;;;;4965585;28;20605;-74
2021/01/02 07:37:45;;;;;;;21.17;11.30;;;0.90;99.90;;;;;;4958166;28;20030;-74
2021/01/02 07:40:19;;;;;;;18.92;10.13;;;0.90;99.90;;;;;;4971157;28;20077;-74
2021/01/02 07:42:50;;;;;;;22.58;10.93;;;0.90;99.90;;;;;;4969917;28;20034;-75
2021/01/02 07:45:17;;;;;;;21.63;11.00;;;0.90;99.90;;;;;;4964551;28;20467;-74
2021/01/02 07:47:58;;;;;;;20.13;11.18;;;0.90;99.90;;;;;;4970050;28;20037;-76
2021/01/02 07:50:26;;;;;;;22.27;12.18;;;1.00;99.90;;;;;;4983033;28;20479;-76
2021/01/02 07:52:54;;;;;;;23.83;11.68;;;0.90;99.90;;;;;;4956090;28;20096;-76
2021/01/02 07:55:25;;;;;;;22.17;11.85;;;0.90;99.90;;;;;;4968890;28;20039;-75
2021/01/02 07:57:51;;;;;;;25.77;12.90;;;0.90;99.90;;;;;;4975718;28;20040;-70
2021/01/02 08:00:17;;;;;;;22.73;12.40;;;0.80;99.90;;;;;;4979301;28;20049;-70
2021/01/02 08:02:43;;;;;;;26.20;12.25;;;0.80;99.90;;;;;;4975419;28;20542;-74
2021/01/02 08:05:17;;;;;;;27.45;12.57;;;0.80;99.90;;;;;;4956325;28;20035;-74
2021/01/02 08:07:53;;;;;;;22.67;11.88;;;0.80;99.90;;;;;;4974256;28;20155;-74
2021/01/02 08:10:18;;;;;;;23.85;12.50;;;0.80;99.90;;;;;;4970378;28;20431;-74
2021/01/02 08:12:49;;;;;;;21.20;11.90;;;0.80;99.90;;;;;;4973746;28;20050;-73
2021/01/02 08:15:24;;;;;;;23.08;11.52;;;0.90;99.90;;;;;;4963464;28;20035;-74
2021/01/02 08:17:50;;;;;;;;;;;1.00;99.90;;;;;;4967543;28;20042;-74
2021/01/02 08:20:16;;;;;;;21.58;11.95;;;1.00;99.90;;;;;;4969921;28;19920;-74
2021/01/02 08:22:42;;;;;;;23.45;12.55;;;1.00;99.90;;;;;;4974257;28;20034;-74
2021/01/02 08:25:15;;;;;;;21.80;11.52;;;1.00;99.90;;;;;;4968061;28;20062;-74
2021/01/02 08:27:42;;;;;;;25.15;12.13;;;1.00;99.90;;;;;;4970006;28;20602;-77
2021/01/02 08:30:10;;;;;;;21.58;11.50;;;1.00;99.90;;;;;;4981325;28;20112;-74
2021/01/02 08:32:43;;;;;;;26.55;13.20;;;0.90;99.90;;;;;;4973159;28;20030;-75
2021/01/02 08:35:20;;;;;;;24.73;11.93;;;1.00;99.90;;;;;;4971414;28;20042;-76
2021/01/02 08:37:48;;;;;;;21.40;11.70;;;1.00;99.90;;;;;;4963534;28;20034;-76
2021/01/02 08:40:16;;;;;;;24.15;11.80;;;1.10;99.90;;;;;;4974729;28;20704;-75
2021/01/02 08:42:44;;;;;;;22.02;12.02;;;1.10;99.90;;;;;;4980487;28;20086;-73
2021/01/02 08:45:12;;;;;;;25.08;12.23;;;1.10;99.90;;;;;;4970043;28;20130;-75
2021/01/02 08:47:39;;;;;;;22.88;12.60;;;1.10;99.90;;;;;;4975064;28;20129;-75
2021/01/02 08:50:13;;;;;;;22.30;12.57;;;1.20;99.90;;;;;;4971456;28;20034;-76
2021/01/02 08:52:40;;;;;;;25.65;13.15;;;1.20;99.90;;;;;;4985477;28;20042;-75
2021/01/02 08:55:14;;;;;;;24.83;12.80;;;1.30;99.90;;;;;;4968679;28;20046;-75
2021/01/02 08:57:44;;;;;;;24.80;12.18;;;1.30;99.90;;;;;;4991898;28;20061;-75
2021/01/02 09:00:20;;;;;;;22.15;11.90;;;1.20;99.90;;;;;;4966209;28;20027;-75
2021/01/02 09:02:51;;;;;;;25.73;13.15;;;1.30;99.90;;;;;;4970046;28;20126;-76
2021/01/02 09:05:28;;;;;;;23.45;11.70;;;1.40;99.90;;;;;;4964590;28;20031;-76
2021/01/02 09:07:56;;;;;;;20.42;11.15;;;1.40;99.90;;;;;;4966718;28;20050;-76
2021/01/02 09:10:28;;;;;;;22.52;11.88;;;1.40;99.90;;;;;;4976526;28;20394;-76
2021/01/02 09:13:12;;;;;;;23.05;11.98;;;1.40;99.90;;;;;;4976966;28;20070;-77
2021/01/02 09:15:59;;;;;;;23.88;11.85;;;1.50;99.90;;;;;;4954807;28;20830;-77
2021/01/02 09:18:27;;;;;;;21.10;11.80;;;1.50;99.90;;;;;;4963830;28;20782;-77
2021/01/02 09:20:53;;;;;;;18.50;11.18;;;1.50;99.90;;;;;;4969926;28;20746;-75
2021/01/02 09:23:29;;;;;;;22.63;11.65;;;1.50;99.90;;;;;;4973304;28;20045;-75
2021/01/02 09:25:55;;;;;;;21.90;11.23;;;1.70;99.90;;;;;;4966646;28;20046;-75
2021/01/02 09:28:21;;;;;;;19.65;10.52;;;1.80;99.90;;;;;;4967709;28;20030;-75
2021/01/02 09:30:48;;;;;;;18.75;10.45;;;1.80;99.90;;;;;;4967518;28;20023;-75
2021/01/02 09:33:14;;;;;;;21.42;12.07;;;1.90;99.90;;;;;;4970889;28;20030;-75
2021/01/02 09:35:43;;;;;;;18.65;10.75;;;2.00;99.90;;;;;;4965118;28;20026;-73
2021/01/02 09:38:09;;;;;;;25.42;11.45;;;2.10;99.90;;;;;;4955135;28;20035;-71
2021/01/02 09:40:43;;;;;;;21.48;11.50;;;2.00;99.90;;;;;;4983384;28;20535;-72
2021/01/02 09:43:12;;;;;;;20.98;10.75;;;2.20;99.90;;;;;;4973512;28;20073;-69
2021/01/02 09:45:38;;;;;;;18.77;10.52;;;2.30;99.90;;;;;;4972382;28;20041;-72
2021/01/02 09:48:06;;;;;;;18.27;11.13;;;2.20;99.90;;;;;;4969430;28;20141;-75
2021/01/02 09:50:33;;;;;;;20.90;10.88;;;2.10;99.90;;;;;;4970112;28;20355;-75
2021/01/02 09:52:59;;;;;;;19.45;11.13;;;2.30;99.90;;;;;;4961366;28;20455;-75
2021/01/02 09:55:26;;;;;;;22.42;11.70;;;2.30;99.90;;;;;;4952608;28;20038;-75
2021/01/02 09:57:51;;;;;;;20.77;11.52;;;2.30;99.90;;;;;;4971692;28;20341;-75
2021/01/02 10:00:19;;;;;;;21.15;11.27;;;2.40;99.90;;;;;;4977234;28;20824;-74
2021/01/02 10:02:45;;;;;;;19.98;10.30;;;2.40;99.90;;;;;;4976334;28;20073;-75
2021/01/02 10:05:16;;;;;;;19.00;11.27;;;2.40;99.90;;;;;;4966633;28;20517;-74
2021/01/02 10:07:42;;;;;;;18.70;10.75;;;2.50;99.90;;;;;;4967398;28;20117;-75
2021/01/02 10:10:09;;;;;;;19.17;10.88;;;2.60;99.90;;;;;;4965621;28;20133;-74
2021/01/02 10:12:35;;;;;;;22.08;11.65;;;2.60;99.90;;;;;;4964730;28;20483;-75
2021/01/02 10:15:00;;;;;;;19.25;10.70;;;2.60;99.90;;;;;;4961523;28;20035;-74
2021/01/02 10:17:28;;;;;;;18.90;10.18;;;2.50;99.90;;;;;;4966798;28;20432;-74
2021/01/02 10:19:55;;;;;;;18.17;10.30;;;2.60;99.90;;;;;;4952320;28;20046;-76
2021/01/02 10:22:21;;;;;;;18.40;10.75;;;2.60;99.90;;;;;;4948861;28;20034;-75
2021/01/02 10:24:48;;;;;;;18.95;11.30;;;2.60;99.90;;;;;;4949461;28;20039;-75
2021/01/02 10:27:15;;;;;;;22.40;11.70;;;2.70;99.90;;;;;;4954836;28;20145;-72
2021/01/02 10:29:44;;;;;;;18.52;10.95;;;2.80;99.90;;;;;;4967458;28;20030;-75
2021/01/02 10:32:11;;;;;;;19.58;11.57;;;3.00;99.90;;;;;;4962187;28;20041;-75
2021/01/02 10:34:37;;;;;;;19.27;10.88;;;2.90;99.90;;;;;;4970180;28;20229;-76
2021/01/02 10:37:03;;;;;;;19.23;10.88;;;3.10;99.90;;;;;;4971852;28;20042;-75
2021/01/02 10:39:29;;;;;;;20.33;10.55;;;3.10;99.90;;;;;;4976428;28;20824;-76
2021/01/02 10:41:55;;;;;;;18.98;10.30;;;3.20;99.90;;;;;;4960296;28;20089;-77
2021/01/02 10:44:20;;;;;;;18.98;10.52;;;3.10;99.90;;;;;;4963283;28;20415;-77
2021/01/02 10:46:48;;;;;;;19.67;10.43;;;3.10;99.90;;;;;;4947978;28;20039;-74
2021/01/02 10:49:15;;;;;;;21.42;10.77;;;3.30;99.90;;;;;;4971963;28;20037;-76
2021/01/02 10:51:41;;;;;;;19.92;9.90;;;3.40;99.90;;;;;;4969642;28;20658;-75
2021/01/02 10:54:09;;;;;;;22.77;10.95;;;3.50;99.90;;;;;;4965924;28;20030;-77
2021/01/02 10:56:35;;;;;;;16.85;9.48;;;3.70;99.90;;;;;;4974447;28;20034;-74
2021/01/02 10:59:02;;;;;;;20.95;11.02;;;3.70;99.90;;;;;;4964909;28;20413;-74
2021/01/02 11:01:27;;;;;;;18.30;10.15;;;3.60;99.90;;;;;;4964620;28;20081;-72
2021/01/02 11:03:54;;;;;;;19.30;10.32;;;3.70;99.90;;;;;;4964660;28;20161;-74
2021/01/02 11:06:19;;;;;;;17.85;9.65;;;3.80;99.90;;;;;;4963910;28;20560;-75
2021/01/02 11:08:46;;;;;;;19.05;10.18;;;3.90;99.90;;;;;;4970465;28;20043;-75
2021/01/02 11:11:20;;;;;;;18.95;10.07;;;3.80;99.90;;;;;;4968301;28;20066;-75
2021/01/02 11:13:46;;;;;;;19.73;10.35;;;3.80;99.90;;;;;;4951764;28;20815;-76
2021/01/02 11:16:12;;;;;;;16.52;10.07;;;3.90;99.90;;;;;;4960361;28;20054;-76
2021/01/02 11:18:37;;;;;;;19.92;10.20;;;3.80;99.90;;;;;;4963603;28;20034;-75
2021/01/02 11:21:08;;;;;;;16.65;9.93;;;4.00;99.90;;;;;;4967341;28;20046;-75
2021/01/02 11:23:34;;;;;;;18.67;10.25;;;4.10;99.90;;;;;;4969436;28;20066;-75
2021/01/02 11:25:59;;;;;;;18.55;10.27;;;4.20;99.90;;;;;;4964741;28;20447;-76
2021/01/02 11:28:25;;;;;;;20.05;10.43;;;4.20;99.90;;;;;;4960697;28;20046;-76
2021/01/02 11:30:50;;;;;;;17.75;10.13;;;4.20;99.90;;;;;;4962377;28;20027;-76
2021/01/02 11:33:16;;;;;;;20.73;10.13;;;4.20;99.90;;;;;;4966949;28;20078;-76
2021/01/02 11:35:42;;;;;;;19.23;10.38;;;4.30;99.90;;;;;;4976361;28;20045;-76
2021/01/02 11:38:07;;;;;;;19.10;10.02;;;4.40;99.90;;;;;;4971062;28;20043;-76
2021/01/02 11:40:33;;;;;;;19.75;11.48;;;4.50;99.90;;;;;;4951781;28;20594;-76
2021/01/02 11:42:59;;;;;;;17.92;10.05;;;4.60;99.90;;;;;;4966384;28;20608;-74
2021/01/02 11:45:24;;;;;;;19.27;10.50;;;4.60;99.90;;;;;;4945615;28;20038;-76
2021/01/02 11:47:51;;;;;;;18.77;10.27;;;4.70;99.90;;;;;;4972818;28;20073;-76
2021/01/02 11:50:17;;;;;;;17.30;9.57;;;4.70;99.90;;;;;;4969989;28;20074;-75
2021/01/02 11:52:43;;;;;;;17.45;9.85;;;4.80;99.90;;;;;;4968773;28;20038;-76
2021/01/02 11:55:09;;;;;;;16.75;10.32;;;4.60;99.90;;;;;;4970362;28;20038;-76
2021/01/02 11:57:35;;;;;;;17.05;9.98;;;4.80;99.90;;;;;;4965785;28;20054;-77
2021/01/02 12:00:02;;;;;;;19.98;9.70;;;4.60;99.90;;;;;;4963059;28;20034;-76
2021/01/02 12:02:31;;;;;;;15.82;9.40;;;4.60;99.90;;;;;;4971392;28;20043;-76
2021/01/02 12:04:56;;;;;;;18.17;9.50;;;4.60;99.90;;;;;;4970424;28;20092;-76
2021/01/02 12:07:22;;;;;;;18.02;9.73;;;4.70;99.90;;;;;;4969513;28;20066;-76
2021/01/02 12:09:48;;;;;;;15.32;8.90;;;4.80;99.90;;;;;;4950410;28;20030;-76
2021/01/02 12:12:14;;;;;;;19.52;9.80;;;4.90;99.90;;;;;;4965938;28;20734;-76
2021/01/02 12:14:40;;;;;;;18.42;9.93;;;4.70;99.90;;;;;;4965544;28;20037;-76
2021/01/02 12:17:11;;;;;;;16.58;9.73;;;4.80;99.90;;;;;;4975764;28;20544;-76
2021/01/02 12:19:37;;;;;;;18.20;9.88;;;5.10;99.90;;;;;;4965494;28;20026;-76
2021/01/02 12:22:05;;;;;;;17.77;9.98;;;5.20;99.90;;;;;;4970140;28;20647;-77
2021/01/02 12:24:32;;;;;;;17.80;9.27;;;5.20;99.90;;;;;;4977459;28;20098;-76
2021/01/02 12:27:00;;;;;;;18.10;9.82;;;5.20;99.90;;;;;;4971583;28;20089;-77
2021/01/02 12:29:27;;;;;;;15.27;8.80;;;5.40;99.90;;;;;;4969958;28;20074;-77
2021/01/02 12:31:56;;;;;;;15.77;9.13;;;5.30;99.90;;;;;;4965108;28;20065;-77
2021/01/02 12:34:28;;;;;;;19.90;10.55;;;5.20;99.90;;;;;;4966175;28;20046;-77
2021/01/02 12:36:55;;;;;;;16.30;9.10;;;4.90;99.90;;;;;;4971886;28;20046;-77
2021/01/02 12:39:27;;;;;;;16.77;9.38;;;5.20;99.90;;;;;;4965843;28;20523;-77
2021/01/02 12:41:53;;;;;;;14.75;8.65;;;5.40;99.90;;;;;;4973607;28;20035;-77
2021/01/02 12:44:21;;;;;;;17.85;9.48;;;5.40;99.90;;;;;;4965650;28;20045;-77
2021/01/02 12:46:59;;;;;;;17.65;9.05;;;5.20;99.90;;;;;;4972136;28;20109;-77
2021/01/02 12:49:28;;;;;;;15.02;8.75;;;5.00;99.90;;;;;;4975130;28;20076;-77
2021/01/02 12:51:55;;;;;;;16.77;9.80;;;5.10;99.90;;;;;;4971334;28;20039;-77
2021/01/02 12:54:22;;;;;;;16.60;9.52;;;5.30;99.90;;;;;;4980833;28;20061;-77
2021/01/02 12:56:50;;;;;;;19.23;9.90;;;5.30;99.90;;;;;;4969131;28;20365;-78
2021/01/02 12:59:32;;;;;;;18.95;9.98;;;5.00;99.90;;;;;;4967779;28;20041;-75